createdAt,value
2023-01-18T00:01:19.836Z,188.90
2023-01-18T00:03:47.413Z,185.63
2023-01-18T00:06:16.818Z,134.87
2023-01-18T00:08:44.065Z,125.87
2023-01-18T00:11:12.950Z,124.20
2023-01-18T00:13:40.658Z,84.70
2023-01-18T00:16:11.519Z,96.40
2023-01-18T00:18:38.858Z,93.43
2023-01-18T00:21:08.166Z,78.13
2023-01-18T00:23:36.049Z,70.50
2023-01-18T00:26:06.762Z,64.17
2023-01-18T00:28:34.497Z,60.10
2023-01-18T00:31:02.314Z,60.90
2023-01-18T00:33:29.601Z,64.90
2023-01-18T00:36:02.067Z,65.37
2023-01-18T00:38:30.223Z,77.53
2023-01-18T00:40:57.830Z,77.53
2023-01-18T00:43:40.411Z,72.93
2023-01-18T00:46:13.319Z,71.37
2023-01-18T00:48:42.069Z,79.50
2023-01-18T00:51:12.135Z,66.73
2023-01-18T00:53:39.941Z,66.63
2023-01-18T00:56:09.275Z,64.13
2023-01-18T00:58:37.802Z,62.40
2023-01-18T01:01:07.295Z,69.03
2023-01-18T01:03:55.183Z,69.73
2023-01-18T01:06:45.151Z,71.93
2023-01-18T01:09:21.824Z,69.80
2023-01-18T01:12:08.951Z,69.50
2023-01-18T01:14:58.945Z,70.83
2023-01-18T01:17:46.662Z,79.97
2023-01-18T01:20:33.074Z,77.23
2023-01-18T01:23:39.399Z,79.33
2023-01-18T01:26:09.153Z,70.67
2023-01-18T01:28:46.452Z,77.07
2023-01-18T01:31:15.562Z,73.30
2023-01-18T01:37:05.636Z,95.20
2023-01-18T01:39:32.804Z,90.00
2023-01-18T01:41:59.939Z,100.07
2023-01-18T01:44:34.658Z,95.30
2023-01-18T01:47:25.284Z,89.77
2023-01-18T01:49:57.628Z,113.63
2023-01-18T01:52:30.020Z,122.87
2023-01-18T01:55:18.334Z,103.23
2023-01-18T01:58:09.192Z,125.00
2023-01-18T02:00:36.401Z,127.70
2023-01-18T02:03:10.239Z,106.97
2023-01-18T02:05:42.505Z,106.03
2023-01-18T02:08:14.086Z,112.17
2023-01-18T02:10:41.235Z,110.77
2023-01-18T02:13:10.520Z,110.07
2023-01-18T02:16:15.529Z,112.33
2023-01-18T02:18:59.962Z,98.67
2023-01-18T02:21:40.837Z,95.20
2023-01-18T02:24:07.984Z,86.53
2023-01-18T02:27:06.506Z,105.53
2023-01-18T02:29:56.366Z,100.93
2023-01-18T02:32:40.582Z,94.07
2023-01-18T02:35:15.827Z,92.73
2023-01-18T02:37:47.937Z,83.30
2023-01-18T02:40:28.280Z,84.60
2023-01-18T02:43:15.956Z,82.53
2023-01-18T02:46:04.896Z,83.33
2023-01-18T02:48:39.020Z,69.27
2023-01-18T02:51:07.159Z,66.07
2023-01-18T02:53:41.157Z,64.53
2023-01-18T02:56:16.279Z,57.27
2023-01-18T02:58:51.476Z,62.10
2023-01-18T03:01:28.493Z,60.07
2023-01-18T03:04:06.684Z,70.47
2023-01-18T03:06:34.108Z,65.50
2023-01-18T03:09:01.946Z,72.70
2023-01-18T03:12:03.192Z,70.17
2023-01-18T03:15:05.249Z,74.30
2023-01-18T03:17:44.389Z,73.20
2023-01-18T03:20:19.741Z,71.23
2023-01-18T03:23:08.706Z,72.53
2023-01-18T03:25:48.360Z,66.30
2023-01-18T03:28:44.574Z,67.80
2023-01-18T03:31:34.057Z,65.63
2023-01-18T03:34:22.783Z,73.77
2023-01-18T03:36:53.274Z,64.27
2023-01-18T03:39:36.934Z,73.10
2023-01-18T03:42:12.386Z,63.93
2023-01-18T03:44:52.963Z,72.70
2023-01-18T03:47:20.828Z,75.00
2023-01-18T03:49:48.196Z,66.90
2023-01-18T03:52:21.801Z,74.77
2023-01-18T03:55:19.368Z,78.87
2023-01-18T03:57:46.443Z,79.33
2023-01-18T04:00:14.984Z,76.80
2023-01-18T04:02:45.036Z,74.10
2023-01-18T04:05:12.393Z,68.03
2023-01-18T04:07:39.822Z,53.63
2023-01-18T04:10:07.448Z,57.83
2023-01-18T04:12:35.203Z,54.53
2023-01-18T04:15:03.553Z,44.97
2023-01-18T04:17:31.140Z,46.23
2023-01-18T04:19:58.345Z,42.33
2023-01-18T04:22:25.831Z,47.97
2023-01-18T04:24:53.313Z,43.57
2023-01-18T04:27:22.349Z,51.23
2023-01-18T04:29:50.837Z,43.40
2023-01-18T04:32:18.051Z,55.37
2023-01-18T04:34:45.341Z,51.50
2023-01-18T04:37:12.848Z,50.37
2023-01-18T04:39:39.976Z,45.80
2023-01-18T04:42:07.258Z,50.00
2023-01-18T04:44:34.469Z,48.13
2023-01-18T04:47:01.644Z,51.47
2023-01-18T04:49:29.099Z,49.23
2023-01-18T04:51:56.276Z,52.77
2023-01-18T04:54:23.525Z,54.30
2023-01-18T04:56:52.078Z,45.73
2023-01-18T04:59:19.357Z,45.90
2023-01-18T05:01:46.668Z,41.77
2023-01-18T05:04:13.837Z,41.87
2023-01-18T05:06:41.067Z,43.87
2023-01-18T05:09:11.753Z,43.40
2023-01-18T05:11:38.880Z,48.67
2023-01-18T05:14:06.388Z,44.70
2023-01-18T05:16:33.732Z,45.53
2023-01-18T05:19:01.101Z,54.03
2023-01-18T05:21:28.943Z,48.03
2023-01-18T05:23:56.118Z,48.80
2023-01-18T05:26:24.510Z,50.90
2023-01-18T05:28:56.628Z,55.80
2023-01-18T05:31:24.026Z,50.23
2023-01-18T05:33:51.393Z,50.10
2023-01-18T05:36:18.930Z,51.60
2023-01-18T05:38:47.088Z,49.57
2023-01-18T05:41:14.217Z,45.33
2023-01-18T05:43:41.704Z,41.70
2023-01-18T05:46:09.252Z,48.53
2023-01-18T05:48:36.488Z,44.60
2023-01-18T05:51:11.422Z,44.17
2023-01-18T05:53:40.078Z,45.30
2023-01-18T05:56:09.063Z,47.33
2023-01-18T05:58:36.295Z,45.43
2023-01-18T06:01:03.508Z,47.13
2023-01-18T06:03:31.047Z,42.80
2023-01-18T06:05:59.200Z,38.67
2023-01-18T06:08:26.496Z,42.13
2023-01-18T06:10:58.214Z,42.83
2023-01-18T06:13:29.946Z,49.83
2023-01-18T06:15:58.398Z,42.60
2023-01-18T06:18:26.930Z,41.90
2023-01-18T06:21:01.122Z,39.40
2023-01-18T06:23:30.066Z,43.93
2023-01-18T06:25:57.228Z,45.90
2023-01-18T06:28:24.678Z,48.33
2023-01-18T06:30:55.780Z,44.70
2023-01-18T06:33:23.696Z,45.03
2023-01-18T06:35:51.686Z,49.03
2023-01-18T06:38:18.853Z,42.90
2023-01-18T06:40:46.201Z,46.50
2023-01-18T06:43:14.532Z,49.03
2023-01-18T06:45:41.978Z,45.87
2023-01-18T06:48:10.131Z,52.00
2023-01-18T06:50:37.540Z,47.23
2023-01-18T06:53:04.727Z,46.10
2023-01-18T06:55:32.116Z,42.73
2023-01-18T06:58:02.902Z,43.83
2023-01-18T07:00:30.348Z,45.67
2023-01-18T07:02:58.772Z,43.23
2023-01-18T07:05:26.253Z,36.93
2023-01-18T07:07:53.372Z,39.63
2023-01-18T07:10:20.545Z,37.50
2023-01-18T07:12:49.095Z,37.27
2023-01-18T07:15:21.944Z,40.13
2023-01-18T07:17:53.434Z,35.97
2023-01-18T07:20:20.575Z,38.37
2023-01-18T07:22:51.994Z,38.97
2023-01-18T07:25:20.985Z,36.13
2023-01-18T07:27:51.929Z,33.73
2023-01-18T07:30:19.583Z,36.00
2023-01-18T07:32:52.606Z,35.80
2023-01-18T07:35:24.240Z,39.23
2023-01-18T07:37:53.466Z,39.70
2023-01-18T07:40:22.139Z,37.33
2023-01-18T07:42:50.218Z,35.30
2023-01-18T07:45:17.583Z,42.43
2023-01-18T07:47:46.613Z,36.17
2023-01-18T07:50:14.568Z,32.03
2023-01-18T07:52:42.406Z,47.73
2023-01-18T07:55:09.912Z,37.37
2023-01-18T07:57:37.222Z,34.60
2023-01-18T08:00:07.711Z,34.07
2023-01-18T08:02:35.682Z,30.77
2023-01-18T08:05:05.205Z,35.97
2023-01-18T08:07:33.598Z,42.23
2023-01-18T08:10:00.841Z,41.60
2023-01-18T08:12:28.307Z,41.70
2023-01-18T08:14:55.433Z,39.83
2023-01-18T08:17:22.623Z,35.63
2023-01-18T08:19:49.885Z,34.57
2023-01-18T08:22:17.001Z,31.23
2023-01-18T08:24:44.153Z,44.97
2023-01-18T08:27:11.312Z,47.93
2023-01-18T08:29:38.474Z,54.07
2023-01-18T08:32:05.704Z,98.87
2023-01-18T08:34:32.885Z,116.17
2023-01-18T08:36:59.969Z,127.17
2023-01-18T08:39:27.257Z,96.83
2023-01-18T08:41:54.386Z,61.83
2023-01-18T08:44:21.707Z,54.87
2023-01-18T08:46:48.861Z,50.60
2023-01-18T08:49:16.627Z,51.53
2023-01-18T08:51:43.715Z,54.90
2023-01-18T08:54:10.917Z,48.63
2023-01-18T08:56:38.332Z,43.23
2023-01-18T08:59:09.249Z,43.63
2023-01-18T09:01:36.460Z,48.83
2023-01-18T09:04:03.859Z,45.97
2023-01-18T09:06:32.421Z,42.13
2023-01-18T09:09:00.418Z,46.83
2023-01-18T09:11:27.694Z,50.87
2023-01-18T09:14:02.898Z,46.30
2023-01-18T09:16:31.994Z,38.43
2023-01-18T09:19:00.129Z,41.20
2023-01-18T09:21:30.631Z,39.80
2023-01-18T09:23:59.697Z,49.17
2023-01-18T09:26:28.047Z,46.73
2023-01-18T09:28:55.368Z,39.57
2023-01-18T09:31:25.533Z,42.67
2023-01-18T09:33:54.184Z,45.03
2023-01-18T09:36:27.061Z,47.00
2023-01-18T09:38:56.078Z,48.20
2023-01-18T09:41:45.036Z,42.57
2023-01-18T09:44:45.542Z,45.57
2023-01-18T09:47:15.881Z,43.33
2023-01-18T09:49:56.880Z,46.20
2023-01-18T09:52:33.212Z,45.17
2023-01-18T09:55:23.683Z,46.23
2023-01-18T09:58:00.227Z,42.50
2023-01-18T10:00:31.781Z,51.37
2023-01-18T10:03:11.720Z,48.23
2023-01-18T10:05:49.922Z,45.57
2023-01-18T10:08:24.303Z,48.60
2023-01-18T10:11:10.000Z,46.10
2023-01-18T10:13:53.551Z,44.87
2023-01-18T10:16:21.091Z,42.40
2023-01-18T10:18:51.518Z,47.67
2023-01-18T10:21:43.169Z,47.80
2023-01-18T10:24:29.253Z,50.33
2023-01-18T10:27:18.621Z,52.07
2023-01-18T10:30:31.359Z,48.63
2023-01-18T10:33:12.585Z,57.33
2023-01-18T10:35:45.502Z,50.00
2023-01-18T10:38:16.793Z,53.80
2023-01-18T10:40:54.424Z,51.20
2023-01-18T10:43:25.291Z,54.47
2023-01-18T10:45:53.871Z,53.13
2023-01-18T10:48:21.816Z,57.47
2023-01-18T10:50:53.369Z,50.90
2023-01-18T10:53:33.084Z,59.83
2023-01-18T10:56:10.983Z,65.13
2023-01-18T10:58:49.311Z,50.50
2023-01-18T11:01:24.197Z,59.87
2023-01-18T11:04:06.240Z,54.50
2023-01-18T11:06:46.925Z,55.73
2023-01-18T11:09:43.126Z,54.77
2023-01-18T11:12:38.170Z,62.27
2023-01-18T11:15:14.612Z,56.70
2023-01-18T11:17:47.153Z,56.67
2023-01-18T11:20:28.550Z,54.37
2023-01-18T11:23:05.719Z,60.53
2023-01-18T11:25:41.963Z,52.90
2023-01-18T11:28:35.412Z,65.43
2023-01-18T11:31:14.480Z,57.37
2023-01-18T11:34:03.080Z,56.17
2023-01-18T11:36:39.585Z,54.87
2023-01-18T11:39:30.244Z,57.93
2023-01-18T11:42:14.158Z,57.67
2023-01-18T11:44:48.712Z,50.67
2023-01-18T11:47:33.307Z,55.63
2023-01-18T11:50:22.513Z,52.13
2023-01-18T11:52:58.234Z,52.47
2023-01-18T11:56:06.641Z,48.43
2023-01-18T11:58:36.114Z,60.43
2023-01-18T12:01:47.826Z,47.40
2023-01-18T12:04:37.724Z,48.23
2023-01-18T12:07:23.814Z,50.00
2023-01-18T12:09:58.267Z,49.27
2023-01-18T12:13:01.278Z,51.30
2023-01-18T12:15:39.798Z,48.37
2023-01-18T12:18:31.699Z,46.97
2023-01-18T12:21:19.238Z,48.43
2023-01-18T12:24:07.220Z,50.40
2023-01-18T12:26:49.636Z,52.60
2023-01-18T12:29:26.017Z,51.10
2023-01-18T12:32:22.881Z,50.00
2023-01-18T12:35:24.175Z,48.43
2023-01-18T12:38:01.761Z,44.93
2023-01-18T12:40:44.289Z,43.47
2023-01-18T12:43:14.593Z,47.53
2023-01-18T12:46:22.150Z,44.37
2023-01-18T12:48:54.500Z,42.57
2023-01-18T12:51:24.853Z,38.77
2023-01-18T12:54:03.611Z,38.73
2023-01-18T12:56:35.548Z,38.63
2023-01-18T12:59:19.797Z,36.40
2023-01-18T13:02:03.196Z,39.30
2023-01-18T13:04:40.382Z,35.90
2023-01-18T13:07:13.566Z,31.70
2023-01-18T13:09:50.795Z,33.03
2023-01-18T13:12:18.413Z,32.00
2023-01-18T13:14:51.720Z,41.40
2023-01-18T13:17:32.101Z,66.60
2023-01-18T13:20:23.207Z,75.03
2023-01-18T13:23:27.949Z,38.97
2023-01-18T13:26:15.092Z,31.97
2023-01-18T13:28:43.451Z,31.97
2023-01-18T13:31:11.390Z,25.37
2023-01-18T13:33:45.811Z,27.73
2023-01-18T13:36:20.289Z,25.03
2023-01-18T13:38:56.039Z,23.33
2023-01-18T13:41:29.491Z,27.87
2023-01-18T13:44:03.702Z,25.50
2023-01-18T13:46:39.214Z,32.07
2023-01-18T13:49:36.337Z,24.53
2023-01-18T13:52:42.632Z,28.23
2023-01-18T13:55:34.045Z,24.40
2023-01-18T13:58:02.275Z,29.27
2023-01-18T14:00:35.395Z,24.47
2023-01-18T14:03:06.403Z,25.03
2023-01-18T14:05:43.115Z,26.00
2023-01-18T14:08:20.973Z,24.47
2023-01-18T14:10:54.027Z,25.87
2023-01-18T14:13:46.660Z,26.40
2023-01-18T14:16:38.848Z,23.67
2023-01-18T14:19:19.747Z,26.43
2023-01-18T14:22:16.838Z,30.07
2023-01-18T14:25:31.988Z,25.77
2023-01-18T14:28:28.742Z,26.60
2023-01-18T14:30:59.962Z,35.87
2023-01-18T14:33:35.689Z,38.43
2023-01-18T14:36:06.185Z,42.23
2023-01-18T14:38:33.423Z,41.03
2023-01-18T14:41:08.084Z,28.80
2023-01-18T14:43:42.885Z,23.77
2023-01-18T14:46:17.457Z,23.37
2023-01-18T14:48:57.095Z,23.67
2023-01-18T14:51:27.250Z,26.57
2023-01-18T14:54:00.739Z,24.87
2023-01-18T14:56:33.438Z,22.70
2023-01-18T14:59:16.677Z,33.30
2023-01-18T15:01:53.383Z,35.67
2023-01-18T15:04:26.747Z,29.20
2023-01-18T15:07:01.904Z,31.90
2023-01-18T15:09:32.687Z,44.27
2023-01-18T15:12:02.724Z,37.87
2023-01-18T15:14:38.191Z,45.70
2023-01-18T15:17:21.711Z,63.67
2023-01-18T15:20:00.382Z,70.07
2023-01-18T15:22:34.466Z,133.73
2023-01-18T15:25:02.294Z,162.80
2023-01-18T15:27:32.693Z,283.37
2023-01-18T15:30:01.989Z,392.67
2023-01-18T15:32:34.265Z,462.23
2023-01-18T15:35:03.285Z,300.50
2023-01-18T15:37:39.949Z,454.80
2023-01-18T15:40:12.854Z,486.40
2023-01-18T15:42:47.545Z,219.23
2023-01-18T15:45:40.966Z,229.67
2023-01-18T15:48:10.676Z,176.80
2023-01-18T15:50:48.947Z,105.00
2023-01-18T15:53:36.059Z,89.50
2023-01-18T15:56:07.223Z,77.63
2023-01-18T15:58:43.125Z,69.57
2023-01-18T16:01:13.534Z,75.00
2023-01-18T16:04:05.900Z,80.53
2023-01-18T16:06:34.590Z,62.20
2023-01-18T16:09:17.095Z,56.60
2023-01-18T16:11:56.721Z,64.83
2023-01-18T16:14:28.073Z,88.90
2023-01-18T16:16:57.186Z,97.23
2023-01-18T16:19:24.560Z,100.67
2023-01-18T16:21:54.798Z,110.17
2023-01-18T16:24:30.942Z,103.60
2023-01-18T16:27:14.233Z,99.57
2023-01-18T16:29:46.835Z,96.13
2023-01-18T16:32:22.908Z,100.57
2023-01-18T16:34:50.489Z,99.70
2023-01-18T16:37:18.405Z,94.67
2023-01-18T16:39:45.643Z,92.73
2023-01-18T16:42:13.199Z,68.77
2023-01-18T16:44:43.511Z,96.20
2023-01-18T16:47:15.871Z,197.83
2023-01-18T16:49:44.315Z,93.13
2023-01-18T16:52:13.667Z,527.10
2023-01-18T16:54:45.020Z,442.20
2023-01-18T16:57:21.864Z,389.47
2023-01-18T16:59:49.557Z,255.40
2023-01-18T17:02:17.349Z,300.97
2023-01-18T17:04:45.841Z,354.37
2023-01-18T17:07:13.246Z,283.07
2023-01-18T17:09:48.243Z,196.40
2023-01-18T17:12:15.928Z,156.77
2023-01-18T17:14:43.257Z,162.13
2023-01-18T17:17:11.149Z,152.20
2023-01-18T17:19:40.374Z,162.60
2023-01-18T17:22:07.792Z,212.27
2023-01-18T17:24:35.086Z,238.00
2023-01-18T17:27:02.316Z,239.17
2023-01-18T17:29:29.638Z,267.60
2023-01-18T17:31:57.071Z,304.90
2023-01-18T17:34:28.337Z,322.10
2023-01-18T17:36:58.648Z,298.30
2023-01-18T17:39:44.083Z,245.93
2023-01-18T17:42:19.184Z,165.07
2023-01-18T17:44:50.826Z,145.10
2023-01-18T17:47:18.279Z,129.17
2023-01-18T17:49:45.367Z,128.30
2023-01-18T17:52:12.599Z,127.47
2023-01-18T17:54:39.773Z,156.63
2023-01-18T17:57:07.052Z,226.20
2023-01-18T17:59:34.216Z,303.17
2023-01-18T18:02:01.534Z,300.87
2023-01-18T18:04:30.939Z,295.60
2023-01-18T18:06:58.779Z,370.70
2023-01-18T18:09:26.107Z,225.40
2023-01-18T18:11:53.310Z,229.93
2023-01-18T18:14:20.485Z,219.17
2023-01-18T18:16:47.771Z,209.43
2023-01-18T18:19:15.012Z,189.80
2023-01-18T18:21:43.359Z,148.83
2023-01-18T18:24:10.545Z,183.43
2023-01-18T18:26:37.748Z,184.80
2023-01-18T18:29:05.240Z,115.43
2023-01-18T18:31:32.681Z,31.60
2023-01-18T18:33:59.802Z,44.07
2023-01-18T18:36:27.711Z,42.43
2023-01-18T18:38:55.070Z,29.33
2023-01-18T18:41:22.363Z,36.33
2023-01-18T18:43:49.517Z,50.70
2023-01-18T18:46:16.751Z,157.60
2023-01-18T18:48:44.139Z,270.60
2023-01-18T18:51:11.392Z,420.97
2023-01-18T18:53:39.271Z,344.67
2023-01-18T18:56:11.611Z,214.03
2023-01-18T18:58:40.069Z,118.57
2023-01-18T19:01:08.453Z,47.97
2023-01-18T19:03:36.807Z,50.20
2023-01-18T19:06:04.907Z,46.56
2023-01-18T19:08:32.445Z,48.53
2023-01-18T19:10:59.897Z,63.77
2023-01-18T19:13:27.238Z,176.27
2023-01-18T19:15:54.557Z,232.87
2023-01-18T19:18:22.695Z,253.70
2023-01-18T19:20:51.275Z,193.10
2023-01-18T19:23:19.006Z,137.73
2023-01-18T19:25:48.389Z,188.27
2023-01-18T19:28:16.510Z,206.53
2023-01-18T19:30:44.394Z,286.53
2023-01-18T19:33:13.583Z,249.37
2023-01-18T19:35:43.248Z,205.67
2023-01-18T19:38:10.797Z,107.93
2023-01-18T19:40:38.009Z,127.67
2023-01-18T19:43:05.328Z,240.67
2023-01-18T19:45:33.311Z,223.70
2023-01-18T19:48:01.581Z,201.40
2023-01-18T19:50:30.577Z,194.00
2023-01-18T19:52:58.694Z,196.37
2023-01-18T19:55:26.072Z,181.57
2023-01-18T19:57:55.970Z,130.47
2023-01-18T20:00:23.333Z,115.20
2023-01-18T20:02:50.725Z,100.03
2023-01-18T20:05:18.155Z,101.40
2023-01-18T20:07:45.798Z,99.57
2023-01-18T20:10:13.069Z,90.27
2023-01-18T20:12:40.479Z,79.47
2023-01-18T20:15:08.070Z,61.50
2023-01-18T20:17:35.195Z,52.97
2023-01-18T20:20:02.313Z,66.13
2023-01-18T20:22:29.509Z,50.93
2023-01-18T20:24:56.627Z,64.50
2023-01-18T20:27:24.041Z,82.10
2023-01-18T20:29:51.197Z,82.70
2023-01-18T20:32:18.690Z,92.60
2023-01-18T20:34:47.591Z,191.87
2023-01-18T20:37:15.922Z,165.00
2023-01-18T20:39:43.364Z,152.60
2023-01-18T20:42:10.814Z,121.87
2023-01-18T20:44:38.998Z,149.80
2023-01-18T20:47:06.658Z,165.00
2023-01-18T20:49:38.365Z,204.83
2023-01-18T20:52:07.257Z,194.80
2023-01-18T20:54:36.440Z,189.83
2023-01-18T20:57:04.975Z,197.53
2023-01-18T20:59:32.226Z,230.37
2023-01-18T21:01:59.666Z,231.90
2023-01-18T21:04:26.975Z,259.30
2023-01-18T21:06:54.710Z,304.00
2023-01-18T21:09:21.901Z,398.57
2023-01-18T21:11:49.038Z,379.53
2023-01-18T21:14:16.332Z,419.37
2023-01-18T21:16:43.907Z,373.93
2023-01-18T21:19:11.362Z,270.03
2023-01-18T21:21:39.024Z,241.87
2023-01-18T21:24:06.703Z,178.97
2023-01-18T21:26:34.457Z,205.57
2023-01-18T21:29:01.622Z,218.20
2023-01-18T21:31:28.835Z,245.27
2023-01-18T21:33:56.138Z,203.60
2023-01-18T21:36:23.888Z,250.53
2023-01-18T21:38:51.861Z,261.13
2023-01-18T21:41:37.516Z,284.63
2023-01-18T21:44:23.624Z,262.70
2023-01-18T21:46:52.321Z,243.83
2023-01-18T21:50:04.139Z,240.37
2023-01-18T21:52:47.805Z,226.13
2023-01-18T21:55:15.600Z,183.40
2023-01-18T21:57:42.960Z,123.43
2023-01-18T22:00:11.231Z,97.27
2023-01-18T22:02:38.779Z,114.10
2023-01-18T22:05:08.903Z,152.17
2023-01-18T22:07:36.356Z,186.97
2023-01-18T22:10:05.959Z,158.80
2023-01-18T22:12:36.003Z,158.53
2023-01-18T22:15:05.424Z,148.33
2023-01-18T22:17:32.900Z,123.47
2023-01-18T22:20:00.430Z,117.40
2023-01-18T22:22:28.144Z,118.73
2023-01-18T22:24:56.854Z,125.37
2023-01-18T22:27:24.019Z,127.90
2023-01-18T22:29:51.580Z,113.83
2023-01-18T22:32:18.857Z,119.17
2023-01-18T22:34:46.064Z,134.30
2023-01-18T22:37:13.334Z,142.13
2023-01-18T22:39:40.539Z,132.30
2023-01-18T22:42:08.037Z,127.70
2023-01-18T22:44:35.145Z,125.07
2023-01-18T22:47:02.314Z,148.60
2023-01-18T22:49:29.616Z,137.83
2023-01-18T22:51:56.867Z,172.80
2023-01-18T22:54:24.194Z,235.30
2023-01-18T22:56:51.318Z,289.30
2023-01-18T22:59:19.076Z,339.13
2023-01-18T23:01:46.195Z,299.60
2023-01-18T23:04:13.420Z,303.30
2023-01-18T23:06:46.950Z,218.40
2023-01-18T23:09:17.856Z,184.53
2023-01-18T23:11:45.888Z,156.17
2023-01-18T23:14:31.975Z,136.10
2023-01-18T23:17:17.762Z,129.27
2023-01-18T23:19:45.028Z,126.13
2023-01-18T23:22:12.150Z,137.33
2023-01-18T23:24:39.525Z,121.43
2023-01-18T23:27:08.188Z,115.87
2023-01-18T23:29:35.414Z,112.93
2023-01-18T23:32:03.145Z,108.70
2023-01-18T23:34:30.451Z,113.50
2023-01-18T23:36:57.563Z,103.97
2023-01-18T23:39:43.284Z,92.27
2023-01-18T23:42:29.261Z,82.30
2023-01-18T23:45:15.098Z,74.53
2023-01-18T23:48:01.457Z,64.60
2023-01-18T23:50:47.623Z,68.57
2023-01-18T23:53:33.810Z,65.43
2023-01-18T23:56:01.132Z,68.80
2023-01-18T23:58:28.494Z,69.60
